Time;durP1;ratioP1;P1;durP2;ratioP2;P2;SDS_P1;SDS_P2;PMS_P1;PMS_P2;Temp;Humidity;BMP_temperature;BMP_pressure;BME280_temperature;BME280_humidity;BME280_pressure;Samples;Min_cycle;Max_cycle;Signal;HPM_P1;HPM_P2
2022/07/14 00:01:15;;;;;;;18.20;4.10;;;;;;;16.26;100.00;101936.09;5052414;28;20029;-62
2022/07/14 00:03:40;;;;;;;19.20;4.10;;;;;;;16.05;100.00;101937.03;5052779;28;20040;-63
2022/07/14 00:06:06;;;;;;;18.35;4.30;;;;;;;15.91;100.00;101939.69;5051876;28;20029;-63
2022/07/14 00:08:31;;;;;;;17.02;4.03;;;;;;;15.67;100.00;101940.56;5051791;28;20017;-63
2022/07/14 00:10:56;;;;;;;18.90;4.70;;;;;;;15.62;100.00;101943.22;5052699;28;20473;-62
2022/07/14 00:13:22;;;;;;;19.38;4.30;;;;;;;15.49;100.00;101944.09;5052362;28;20093;-64
2022/07/14 00:15:47;;;;;;;19.27;4.32;;;;;;;15.56;100.00;101943.22;5051948;28;20029;-63
2022/07/14 00:18:12;;;;;;;18.65;4.35;;;;;;;15.67;100.00;101916.59;5052402;28;20104;-62
2022/07/14 00:20:38;;;;;;;18.58;4.28;;;;;;;15.72;100.00;101911.25;5051944;28;20068;-64
2022/07/14 00:23:04;;;;;;;19.55;4.88;;;;;;;15.67;100.00;101911.25;5051842;28;20396;-62
2022/07/14 00:25:29;;;;;;;19.17;4.40;;;;;;;15.58;100.00;101901.47;5052053;28;20467;-64
2022/07/14 00:27:55;;;;;;;16.38;4.00;;;;;;;15.66;100.00;101899.69;5052055;28;20357;-63
2022/07/14 00:30:21;;;;;;;18.77;4.18;;;;;;;15.59;100.00;101903.22;5052041;28;20037;-63
2022/07/14 00:32:47;;;;;;;18.00;4.10;;;;;;;15.65;100.00;101908.59;5051811;28;20120;-63
2022/07/14 00:35:13;;;;;;;19.90;4.53;;;;;;;15.51;100.00;101929.00;5049956;28;20493;-63
2022/07/14 00:37:38;;;;;;;20.55;4.78;;;;;;;15.37;100.00;101928.97;5051987;28;20443;-63
2022/07/14 00:40:06;;;;;;;20.27;4.80;;;;;;;15.47;100.00;101927.22;5051876;28;20317;-63
2022/07/14 00:42:34;;;;;;;19.45;4.50;;;;;;;15.48;100.00;101923.69;5046354;28;20036;-63
2022/07/14 00:45:05;;;;;;;18.88;4.93;;;;;;;15.50;100.00;101936.09;5048749;28;20033;-63
2022/07/14 00:47:32;;;;;;;19.02;4.80;;;;;;;15.52;100.00;101930.75;5048753;28;20021;-62
2022/07/14 00:49:57;;;;;;;17.35;4.40;;;;;;;15.45;100.00;101929.88;5048031;28;20017;-63
2022/07/14 00:52:25;;;;;;;18.40;4.70;;;;;;;15.36;100.00;101916.53;5051738;28;20122;-63
2022/07/14 00:54:50;;;;;;;19.42;4.88;;;;;;;15.40;100.00;101914.78;5050333;28;20044;-63
2022/07/14 00:57:16;;;;;;;21.38;4.85;;;;;;;15.37;100.00;101925.44;5051688;28;20028;-62
2022/07/14 00:59:42;;;;;;;19.25;4.82;;;;;;;15.34;100.00;101931.63;5051411;28;20166;-63
2022/07/14 01:02:08;;;;;;;19.80;4.95;;;;;;;15.32;100.00;101928.97;5051343;28;20029;-63
2022/07/14 01:04:33;;;;;;;20.02;4.75;;;;;;;15.40;100.00;101925.44;5051006;28;20042;-62
2022/07/14 01:06:59;;;;;;;18.75;4.70;;;;;;;15.34;100.00;101927.19;5051473;28;20031;-62
2022/07/14 01:09:24;;;;;;;18.17;4.40;;;;;;;15.30;100.00;101941.41;5050731;28;20063;-63
2022/07/14 01:11:49;;;;;;;17.88;4.60;;;;;;;15.28;100.00;101937.84;5051215;28;20092;-62
2022/07/14 01:14:15;;;;;;;20.02;4.85;;;;;;;15.26;100.00;101938.72;5050915;28;20031;-62
2022/07/14 01:16:40;;;;;;;19.70;4.63;;;;;;;15.28;100.00;101939.63;5050712;28;20471;-64
2022/07/14 01:19:06;;;;;;;18.70;5.00;;;;;;;15.28;100.00;101936.97;5051233;28;20025;-63
2022/07/14 01:21:31;;;;;;;16.77;4.78;;;;;;;15.36;100.00;101944.97;5051110;28;20546;-63
2022/07/14 01:23:56;;;;;;;18.50;4.75;;;;;;;15.40;100.00;101952.06;5051013;28;20040;-63
2022/07/14 01:26:22;;;;;;;18.17;5.00;;;;;;;15.39;100.00;101961.84;5050725;28;20037;-63
2022/07/14 01:28:47;;;;;;;19.02;5.18;;;;;;;15.39;100.00;101951.19;5050761;28;20100;-63
2022/07/14 01:31:12;;;;;;;19.98;5.00;;;;;;;15.45;100.00;101953.88;5050880;28;20064;-63
2022/07/14 01:33:38;;;;;;;17.77;4.97;;;;;;;15.43;100.00;101955.63;5050028;28;20112;-64
2022/07/14 01:36:03;;;;;;;20.17;4.88;;;;;;;15.33;100.00;101960.06;5050132;28;20502;-62
2022/07/14 01:38:29;;;;;;;16.95;4.80;;;;;;;15.23;100.00;101952.03;5051057;28;20071;-63
2022/07/14 01:40:54;;;;;;;19.10;5.00;;;;;;;15.20;100.00;101954.69;5051029;28;20058;-64
2022/07/14 01:43:19;;;;;;;19.40;4.90;;;;;;;15.10;100.00;101970.66;5050046;28;20048;-63
2022/07/14 01:45:45;;;;;;;18.80;4.75;;;;;;;15.16;100.00;101965.34;5050418;28;20167;-62
2022/07/14 01:48:10;;;;;;;17.23;5.00;;;;;;;15.17;100.00;101950.22;5050361;28;20024;-64
2022/07/14 01:50:35;;;;;;;18.27;4.90;;;;;;;15.28;100.00;101948.50;5050540;28;20039;-64
2022/07/14 01:53:01;;;;;;;20.05;5.07;;;;;;;15.34;100.00;101942.28;5050598;28;20475;-63
2022/07/14 01:55:26;;;;;;;18.52;5.05;;;;;;;15.33;100.00;101946.75;5050421;28;20067;-63
2022/07/14 01:57:51;;;;;;;20.15;5.22;;;;;;;15.25;100.00;101937.84;5050808;28;20025;-63
2022/07/14 02:00:17;;;;;;;18.52;5.03;;;;;;;15.25;100.00;101937.84;5051240;28;20025;-63
2022/07/14 02:02:42;;;;;;;20.58;5.03;;;;;;;15.31;100.00;101936.97;5049821;28;20071;-63
2022/07/14 02:05:09;;;;;;;19.17;4.70;;;;;;;15.32;100.00;101939.63;5050255;28;20048;-63
2022/07/14 02:07:35;;;;;;;19.55;5.07;;;;;;;15.30;100.00;101940.50;5050714;28;20044;-63
2022/07/14 02:12:44;;;;;;;20.83;5.30;;;;;;;15.23;100.00;101936.97;5050388;28;20098;-63
2022/07/14 02:15:09;;;;;;;21.48;5.53;;;;;;;15.16;100.00;101943.16;5049356;28;20029;-63
2022/07/14 02:17:35;;;;;;;21.27;5.22;;;;;;;15.18;100.00;101940.50;5050501;28;20029;-63
2022/07/14 02:20:00;;;;;;;22.20;5.72;;;;;;;15.07;100.00;101935.13;5050680;28;20029;-63
2022/07/14 02:22:26;;;;;;;21.27;5.72;;;;;;;15.07;100.00;101937.78;5047031;28;20021;-63
2022/07/14 02:24:51;;;;;;;20.80;5.55;;;;;;;15.10;100.00;101940.44;5049929;28;20033;-63
2022/07/14 02:27:16;;;;;;;21.25;5.47;;;;;;;15.09;100.00;101942.22;5049822;28;20025;-62
2022/07/14 02:29:41;;;;;;;20.02;5.28;;;;;;;14.97;100.00;101943.09;5050433;28;20107;-63
2022/07/14 02:32:07;;;;;;;21.15;5.53;;;;;;;14.88;100.00;101939.50;5050653;28;20468;-63
2022/07/14 02:34:32;;;;;;;20.45;5.57;;;;;;;14.80;100.00;101939.47;5048612;28;20029;-63
2022/07/14 02:36:58;;;;;;;21.35;5.50;;;;;;;14.71;100.00;101923.44;5050597;28;20040;-64
2022/07/14 02:39:24;;;;;;;19.13;5.10;;;;;;;14.72;100.00;101933.22;5050003;28;20021;-64
2022/07/14 02:41:49;;;;;;;19.27;4.95;;;;;;;14.67;100.00;101924.34;5051141;28;20035;-63
2022/07/14 02:44:14;;;;;;;21.95;5.47;;;;;;;14.53;100.00;101924.22;5053352;28;20052;-63
2022/07/14 02:46:40;;;;;;;20.33;5.45;;;;;;;14.38;100.00;101920.59;5053314;28;20035;-64
2022/07/14 02:49:05;;;;;;;18.77;5.30;;;;;;;14.30;100.00;101915.25;5053844;28;20095;-65
2022/07/14 02:51:31;;;;;;;20.08;5.38;;;;;;;14.19;100.00;101906.31;5054353;28;20055;-63
2022/07/14 02:53:56;;;;;;;21.05;5.53;;;;;;;14.16;100.00;101906.28;5053832;28;20399;-65
2022/07/14 02:56:21;;;;;;;22.33;5.72;;;;;;;14.15;100.00;101906.28;5053098;28;20032;-64
2022/07/14 02:58:47;;;;;;;20.90;5.70;;;;;;;14.08;100.00;101910.66;5053700;28;20025;-64
2022/07/14 03:01:12;;;;;;;20.23;5.53;;;;;;;14.03;100.00;101907.97;5053778;28;20029;-63
2022/07/14 03:03:37;;;;;;;22.02;6.15;;;;;;;14.01;100.00;101911.47;5053636;28;20048;-63
2022/07/14 03:06:15;;;;;;;20.50;5.90;;;;;;;13.96;100.00;101922.09;5053395;28;20021;-63
2022/07/14 03:08:41;;;;;;;25.52;6.60;;;;;;;13.96;100.00;101914.13;5052160;28;20024;-62
2022/07/14 03:11:07;;;;;;;20.88;5.97;;;;;;;13.97;100.00;101910.59;5053353;28;20033;-63
2022/07/14 03:13:32;;;;;;;21.77;6.20;;;;;;;13.94;100.00;101907.91;5053778;28;20422;-62
2022/07/14 03:15:59;;;;;;;23.42;6.20;;;;;;;13.95;100.00;101899.94;5053263;28;20021;-64
2022/07/14 03:18:24;;;;;;;22.02;6.22;;;;;;;13.97;100.00;101891.09;5053145;28;20021;-64
2022/07/14 03:20:53;;;;;;;22.65;6.75;;;;;;;13.96;100.00;101890.19;5053715;28;20345;-63
2022/07/14 03:23:20;;;;;;;22.67;6.60;;;;;;;14.01;100.00;101885.81;5052936;28;20036;-63
2022/07/14 03:25:45;;;;;;;23.23;6.88;;;;;;;13.92;100.00;101883.97;5053232;28;20372;-64
2022/07/14 03:28:11;;;;;;;21.55;6.30;;;;;;;13.90;100.00;101880.41;5053334;28;20029;-64
2022/07/14 03:30:37;;;;;;;19.73;6.18;;;;;;;13.87;100.00;101880.38;5053368;28;20029;-62
2022/07/14 03:33:03;;;;;;;22.20;6.30;;;;;;;13.78;100.00;101883.88;5052881;28;20043;-64
2022/07/14 03:35:29;;;;;;;23.50;6.70;;;;;;;13.76;100.00;101882.97;5052295;28;20025;-63
2022/07/14 03:37:54;;;;;;;23.02;6.32;;;;;;;13.78;100.00;101883.00;5052594;28;20025;-63
2022/07/14 03:40:20;;;;;;;22.67;6.68;;;;;;;13.76;100.00;101888.28;5052930;28;20021;-64
2022/07/14 03:42:45;;;;;;;20.70;6.72;;;;;;;13.75;100.00;101888.28;5052804;28;20049;-63
2022/07/14 03:45:11;;;;;;;22.55;6.65;;;;;;;13.73;100.00;101884.72;5052557;28;20050;-63
2022/07/14 03:47:36;;;;;;;24.65;7.07;;;;;;;13.66;100.00;101885.53;5052780;28;20060;-63
2022/07/14 03:50:02;;;;;;;22.48;6.60;;;;;;;13.75;100.00;101885.63;5052106;28;20360;-64
2022/07/14 03:52:28;;;;;;;22.98;6.35;;;;;;;13.62;100.00;101884.63;5051909;28;20375;-63
2022/07/14 03:54:53;;;;;;;22.30;6.88;;;;;;;13.58;100.00;101902.28;5052633;28;20453;-63
2022/07/14 03:57:18;;;;;;;21.48;6.40;;;;;;;13.53;100.00;101906.69;5052599;28;20040;-63
2022/07/14 03:59:43;;;;;;;22.10;7.00;;;;;;;13.56;100.00;101916.47;5052772;28;20025;-63
2022/07/14 04:02:12;;;;;;;24.60;7.38;;;;;;;13.54;100.00;101911.16;5052762;28;20479;-64
2022/07/14 04:04:39;;;;;;;22.55;7.35;;;;;;;13.55;100.00;101917.34;5050404;28;20032;-64
2022/07/14 04:07:05;;;;;;;23.42;7.10;;;;;;;13.59;100.00;101916.50;5052118;28;20029;-62
2022/07/14 04:09:31;;;;;;;24.77;7.05;;;;;;;13.52;100.00;101915.53;5052850;28;20025;-62
2022/07/14 04:11:57;;;;;;;20.83;6.05;;;;;;;13.56;100.00;101917.34;5052629;28;20029;-64
2022/07/14 04:14:23;;;;;;;22.75;6.80;;;;;;;13.63;100.00;101922.72;5052044;28;20025;-64
2022/07/14 04:16:49;;;;;;;23.85;7.45;;;;;;;13.60;100.00;101905.88;5052820;28;20071;-64
2022/07/14 04:19:14;;;;;;;23.73;6.97;;;;;;;13.64;100.00;101905.91;5051575;28;20057;-62
2022/07/14 04:21:40;;;;;;;21.98;6.88;;;;;;;13.69;100.00;101898.84;5051984;28;20016;-63
2022/07/14 04:24:06;;;;;;;22.38;6.72;;;;;;;13.70;100.00;101903.28;5052501;28;20336;-64
2022/07/14 04:26:31;;;;;;;22.80;7.60;;;;;;;13.69;100.00;101902.41;5051654;28;20036;-64
2022/07/14 04:28:56;;;;;;;24.52;7.72;;;;;;;13.65;100.00;101905.03;5051982;28;20029;-62
2022/07/14 04:31:22;;;;;;;24.15;8.82;;;;;;;13.62;100.00;101902.34;5052126;28;20025;-64
2022/07/14 04:33:48;;;;;;;22.42;8.20;;;;;;;13.69;100.00;101906.81;5051895;28;20023;-62
2022/07/14 04:36:13;;;;;;;24.02;7.72;;;;;;;13.71;100.00;101911.28;5051261;28;20403;-64
2022/07/14 04:38:38;;;;;;;21.40;7.85;;;;;;;13.69;100.00;101912.13;5052206;28;20075;-64
2022/07/14 04:41:04;;;;;;;21.85;8.32;;;;;;;13.62;100.00;101902.34;5051897;28;20058;-64
2022/07/14 04:43:29;;;;;;;24.15;8.32;;;;;;;13.63;100.00;101899.72;5051860;28;20056;-62
2022/07/14 04:45:54;;;;;;;23.77;8.23;;;;;;;13.69;100.00;101899.75;5051647;28;20492;-64
2022/07/14 04:48:20;;;;;;;25.13;8.25;;;;;;;13.73;100.00;101898.00;5051855;28;20037;-64
2022/07/14 04:53:29;;;;;;;22.42;7.90;;;;;;;13.76;100.00;101893.59;5050315;28;20110;-63
2022/07/14 04:55:55;;;;;;;22.45;7.95;;;;;;;13.79;100.00;101898.06;5050148;28;20029;-63
2022/07/14 04:58:21;;;;;;;21.40;7.80;;;;;;;13.83;100.00;101898.97;5051249;28;20025;-64
2022/07/14 05:00:47;;;;;;;30.98;8.05;;;;;;;13.91;100.00;101897.25;5051511;28;20040;-63
2022/07/14 05:03:12;;;;;;;26.55;8.18;;;;;;;13.89;100.00;101899.91;5051562;28;20073;-63
2022/07/14 05:05:38;;;;;;;22.27;8.43;;;;;;;14.01;100.00;101917.72;5050116;28;20779;-63
2022/07/14 05:08:03;;;;;;;25.15;8.90;;;;;;;14.04;100.00;101915.06;5051272;28;20444;-64
2022/07/14 05:10:28;;;;;;;24.10;8.88;;;;;;;14.11;100.00;101926.63;5051039;28;20455;-64
2022/07/14 05:12:54;;;;;;;24.23;8.68;;;;;;;14.09;100.00;101925.72;5050958;28;20483;-62
2022/07/14 05:15:20;;;;;;;27.42;9.45;;;;;;;14.16;100.00;101924.03;5050979;28;20064;-63
2022/07/14 05:17:45;;;;;;;26.30;9.00;;;;;;;14.16;100.00;101914.25;5050912;28;20063;-63
2022/07/14 05:20:11;;;;;;;26.50;8.85;;;;;;;14.25;100.00;101919.63;5051330;28;20056;-62
2022/07/14 05:22:38;;;;;;;25.02;8.77;;;;;;;14.35;100.00;101915.25;5051137;28;20051;-63
2022/07/14 05:25:11;;;;;;;25.45;9.20;;;;;;;14.43;100.00;101908.22;5046700;28;20548;-62
2022/07/14 05:27:37;;;;;;;26.17;9.27;;;;;;;14.57;100.00;101918.91;5050770;28;20032;-64
2022/07/14 05:30:08;;;;;;;25.58;8.95;;;;;;;14.66;100.00;101917.22;5050895;28;20488;-62
2022/07/14 05:32:35;;;;;;;25.58;8.90;;;;;;;14.66;100.00;101919.88;5050912;28;20387;-63
2022/07/14 05:35:01;;;;;;;26.63;8.10;;;;;;;14.73;100.00;101908.38;5048759;28;20071;-65
2022/07/14 05:37:26;;;;;;;23.63;7.38;;;;;;;14.80;100.00;101908.41;5049088;28;20053;-66
2022/07/14 05:39:51;;;;;;;23.50;7.68;;;;;;;14.88;100.00;101907.53;5048875;28;20040;-67
2022/07/14 05:42:21;;;;;;;22.90;6.88;;;;;;;14.91;100.00;101911.13;5047461;28;20068;-65
2022/07/14 05:44:47;;;;;;;25.50;7.57;;;;;;;14.97;100.00;101920.91;5048670;28;20036;-66
2022/07/14 05:47:12;;;;;;;24.13;7.13;;;;;;;15.06;100.00;101920.03;5049411;28;20341;-65
2022/07/14 05:49:42;;;;;;;28.17;7.82;;;;;;;15.11;100.00;101924.47;5048836;28;20071;-67
2022/07/14 05:52:11;;;;;;;26.35;7.82;;;;;;;15.22;100.00;101929.84;5049416;28;20062;-65
2022/07/14 05:54:36;;;;;;;23.77;7.22;;;;;;;15.29;100.00;101920.06;5047416;28;20086;-66
2022/07/14 05:57:01;;;;;;;25.05;7.55;;;;;;;15.31;100.00;101911.19;5047944;28;20025;-68
2022/07/14 05:59:26;;;;;;;25.70;7.43;;;;;;;15.39;100.00;101907.66;5048378;28;20033;-66
2022/07/14 06:01:52;;;;;;;23.27;7.43;;;;;;;15.48;100.00;101902.38;5047591;28;20025;-66
2022/07/14 06:04:17;;;;;;;23.63;7.55;;;;;;;15.51;100.00;101902.38;5046915;28;20036;-67
2022/07/14 06:06:46;;;;;;;29.15;8.00;;;;;;;15.57;100.00;101906.81;5048662;28;20033;-68
2022/07/14 06:09:12;;;;;;;26.27;7.50;;;;;;;15.60;100.00;101913.00;5048174;28;20475;-65
2022/07/14 06:11:40;;;;;;;26.00;7.63;;;;;;;15.66;100.00;101909.47;5047471;28;20020;-67
2022/07/14 06:14:07;;;;;;;25.25;7.32;;;;;;;15.71;100.00;101913.00;5047489;28;20025;-63
2022/07/14 06:16:32;;;;;;;23.85;7.30;;;;;;;15.77;100.00;101914.78;5048478;28;20045;-64
2022/07/14 06:18:58;;;;;;;22.90;7.35;;;;;;;15.84;100.00;101919.25;5051204;28;20052;-65
2022/07/14 06:21:23;;;;;;;23.52;7.13;;;;;;;15.90;100.00;101913.03;5054138;28;20048;-68
2022/07/14 06:23:48;;;;;;;23.25;7.22;;;;;;;15.93;100.00;101905.94;5053325;28;20036;-64
2022/07/14 06:26:14;;;;;;;24.13;7.43;;;;;;;15.97;100.00;101898.81;5053338;28;20031;-64
2022/07/14 06:28:39;;;;;;;23.80;7.30;;;;;;;16.00;100.00;101901.47;5053532;28;20025;-66
2022/07/14 06:31:05;;;;;;;24.15;7.20;;;;;;;16.09;100.00;101906.81;5052232;28;20013;-65
2022/07/14 06:33:30;;;;;;;24.17;7.43;;;;;;;16.16;100.00;101907.66;5053569;28;20021;-64
2022/07/14 06:35:56;;;;;;;26.58;7.55;;;;;;;16.17;100.00;101912.13;5054180;28;20071;-64
2022/07/14 06:38:21;;;;;;;24.33;7.70;;;;;;;16.24;100.00;101912.97;5054094;28;20021;-64
2022/07/14 06:40:46;;;;;;;24.27;7.53;;;;;;;16.30;100.00;101915.66;5053038;28;20041;-64
2022/07/14 06:43:12;;;;;;;21.55;6.63;;;;;;;16.34;100.00;101923.63;5053882;28;20574;-64
2022/07/14 06:45:39;;;;;;;24.27;6.70;;;;;;;16.33;100.00;101924.53;5053101;28;20120;-63
2022/07/14 06:48:04;;;;;;;22.65;6.70;;;;;;;16.37;100.00;101922.75;5053864;28;20112;-64
2022/07/14 06:50:30;;;;;;;23.77;6.95;;;;;;;16.49;100.00;101919.16;5053639;28;20103;-64
2022/07/14 06:52:55;;;;;;;25.48;7.63;;;;;;;16.58;100.00;101919.09;5053694;28;20017;-67
2022/07/14 06:55:20;;;;;;;23.98;6.85;;;;;;;16.62;100.00;101918.22;5052371;28;20028;-64
2022/07/14 06:57:46;;;;;;;22.10;7.15;;;;;;;16.76;100.00;101911.91;5053174;28;20017;-64
2022/07/14 07:00:12;;;;;;;22.23;7.20;;;;;;;16.73;100.00;101911.06;5053630;28;20033;-63
2022/07/14 07:02:37;;;;;;;24.98;7.07;;;;;;;16.80;100.00;101908.34;5052950;28;20357;-65
2022/07/14 07:07:49;;;;;;;21.33;6.80;;;;;;;16.82;100.00;101909.22;5053351;28;20044;-65
2022/07/14 07:10:14;;;;;;;23.73;6.53;;;;;;;16.83;100.00;101905.66;5053679;28;20029;-64
2022/07/14 07:12:39;;;;;;;22.90;6.68;;;;;;;16.92;100.00;101916.34;5053152;28;20099;-64
2022/07/14 07:15:05;;;;;;;22.55;6.88;;;;;;;16.88;100.00;101915.47;5052444;28;20104;-64
2022/07/14 07:17:31;;;;;;;23.17;6.50;;;;;;;16.93;100.00;101912.75;5052995;28;20517;-66
2022/07/14 07:19:56;;;;;;;22.27;6.50;;;;;;;17.02;100.00;101915.41;5053575;28;20116;-65
2022/07/14 07:22:21;;;;;;;21.73;5.43;;;;;;;17.10;100.00;101903.78;5053848;28;20032;-64
2022/07/14 07:24:47;;;;;;;21.17;5.47;;;;;;;17.19;100.00;101915.28;5052842;28;20029;-63
2022/07/14 07:27:12;;;;;;;24.30;6.00;;;;;;;17.27;100.00;101898.31;5052019;28;20032;-65
2022/07/14 07:29:37;;;;;;;21.55;5.30;;;;;;;17.39;100.00;101907.13;5053463;28;20021;-65
2022/07/14 07:32:03;;;;;;;22.48;5.70;;;;;;;17.50;100.00;101907.03;5052006;28;20452;-64
2022/07/14 07:34:28;;;;;;;21.02;5.45;;;;;;;17.57;100.00;101897.19;5051933;28;20038;-64
2022/07/14 07:36:54;;;;;;;22.55;4.90;;;;;;;17.58;100.00;101896.31;5053051;28;20033;-65
2022/07/14 07:39:19;;;;;;;19.73;4.78;;;;;;;17.66;100.00;101898.91;5053089;28;20036;-62
2022/07/14 07:41:45;;;;;;;20.52;4.78;;;;;;;17.72;100.00;101882.81;5053085;28;20025;-64
2022/07/14 07:44:10;;;;;;;20.30;4.47;;;;;;;17.76;100.00;101885.44;5052621;28;20049;-63
2022/07/14 07:46:36;;;;;;;20.77;4.97;;;;;;;17.89;100.00;101885.34;5052759;28;20059;-65
2022/07/14 07:49:01;;;;;;;18.88;4.53;;;;;;;17.94;100.00;101879.09;5052775;28;20068;-64
2022/07/14 07:51:26;;;;;;;20.05;4.68;;;;;;;17.99;100.00;101884.38;5052884;28;20029;-62
2022/07/14 07:53:52;;;;;;;19.15;4.50;;;;;;;18.09;100.00;101891.41;5053274;28;20151;-62
2022/07/14 07:56:17;;;;;;;18.88;4.32;;;;;;;18.15;100.00;101885.09;5052614;28;20482;-64
2022/07/14 07:58:42;;;;;;;20.15;4.40;;;;;;;18.27;100.00;101892.09;5052934;28;20037;-62
2022/07/14 08:01:09;;;;;;;18.92;4.43;;;;;;;18.38;100.00;101882.16;5052532;28;20087;-64
2022/07/14 08:03:34;;;;;;;19.15;4.50;;;;;;;18.52;100.00;101886.47;5051925;28;20464;-63
2022/07/14 08:05:59;;;;;;;19.70;4.30;;;;;;;18.63;100.00;101882.75;5052381;28;20037;-64
2022/07/14 08:08:25;;;;;;;22.88;4.50;;;;;;;18.74;100.00;101877.28;5052090;28;20111;-63
2022/07/14 08:10:50;;;;;;;19.67;4.60;;;;;;;18.89;100.00;101869.97;5052526;28;20062;-63
2022/07/14 08:13:16;;;;;;;21.27;4.75;;;;;;;18.99;100.00;101872.47;5052517;28;20029;-64
2022/07/14 08:15:41;;;;;;;19.90;4.63;;;;;;;19.09;100.00;101861.63;5051962;28;20099;-64
2022/07/14 08:18:07;;;;;;;19.55;4.55;;;;;;;19.21;100.00;101856.09;5051943;28;20043;-64
2022/07/14 08:20:33;;;;;;;20.00;4.68;;;;;;;19.31;100.00;101863.06;5051354;28;20040;-65
2022/07/14 08:22:59;;;;;;;20.15;5.18;;;;;;;19.40;100.00;101856.66;5051819;28;20044;-65
2022/07/14 08:25:25;;;;;;;20.23;4.90;;;;;;;19.40;99.88;101855.78;5052022;28;20388;-65
2022/07/14 08:27:51;;;;;;;18.20;4.57;;;;;;;19.45;98.48;101851.22;5052592;28;20077;-66
2022/07/14 08:30:16;;;;;;;19.48;4.78;;;;;;;19.52;92.94;101845.72;5051774;28;20353;-66
2022/07/14 08:32:49;;;;;;;19.10;4.78;;;;;;;19.66;94.73;101856.22;5051965;28;20036;-66
2022/07/14 08:35:16;;;;;;;19.35;4.50;;;;;;;20.01;90.38;101854.72;5049910;28;20029;-66
2022/07/14 08:37:42;;;;;;;20.15;4.45;;;;;;;20.35;89.63;101861.22;5048406;28;20040;-64
2022/07/14 08:40:10;;;;;;;19.20;4.40;;;;;;;20.77;85.60;101850.50;5051581;28;20025;-64
2022/07/14 08:42:37;;;;;;;17.40;4.13;;;;;;;21.16;81.20;101852.28;5051734;28;20454;-65
2022/07/14 08:45:08;;;;;;;19.08;4.70;;;;;;;21.46;78.93;101858.72;5049260;28;20448;-64
2022/07/14 08:47:35;;;;;;;19.90;4.30;;;;;;;21.69;75.53;101865.38;5051947;28;20112;-65
2022/07/14 08:50:06;;;;;;;19.92;5.00;;;;;;;21.87;74.94;101859.50;5051815;28;20029;-66
2022/07/14 08:52:32;;;;;;;18.67;5.05;;;;;;;21.81;74.74;101853.38;5051578;28;20029;-67
2022/07/14 08:54:58;;;;;;;19.42;4.43;;;;;;;22.03;74.09;101859.06;5051081;28;20036;-68
2022/07/14 08:57:24;;;;;;;20.80;4.97;;;;;;;22.09;74.58;101857.09;5051744;28;20387;-68
2022/07/14 08:59:49;;;;;;;18.40;4.65;;;;;;;22.09;74.79;101859.78;5051839;28;20021;-69
2022/07/14 09:02:14;;;;;;;20.67;4.97;;;;;;;22.15;74.98;101853.34;5049256;28;20029;-66
2022/07/14 09:04:44;;;;;;;19.30;4.80;;;;;;;22.18;75.25;101855.97;5050900;28;20075;-64
2022/07/14 09:07:10;;;;;;;19.80;5.13;;;;;;;22.11;72.52;101852.53;5051848;28;20032;-65
2022/07/14 09:09:37;;;;;;;18.48;5.18;;;;;;;22.09;75.04;101848.13;5050696;28;20029;-66
2022/07/14 09:12:07;;;;;;;21.70;5.43;;;;;;;22.15;74.36;101856.03;5050801;28;20021;-65
2022/07/14 09:17:23;;;;;;;21.38;4.72;;;;;;;22.40;70.53;101850.88;5051613;28;20051;-65
2022/07/14 09:20:21;;;;;;;19.00;4.40;;;;;;;22.51;73.22;101846.97;5051031;28;20023;-66
2022/07/14 09:22:47;;;;;;;17.40;4.28;;;;;;;22.54;68.89;101850.47;5008825;28;20184;-66
2022/07/14 09:25:15;;;;;;;18.02;3.85;;;;;;;22.78;68.90;101845.25;5007805;28;20029;-65
2022/07/14 09:27:42;;;;;;;17.58;4.00;;;;;;;22.89;67.33;101852.97;5009175;28;20037;-65
2022/07/14 09:30:11;;;;;;;18.10;4.18;;;;;;;23.19;66.91;101845.75;5009079;28;20036;-67
2022/07/14 09:32:51;;;;;;;19.25;4.18;;;;;;;23.31;65.48;101830.97;5007246;28;20044;-69
2022/07/14 09:35:22;;;;;;;18.77;3.85;;;;;;;23.22;65.18;101832.19;5008082;28;20034;-67
2022/07/14 09:37:49;;;;;;;17.45;4.10;;;;;;;23.34;63.47;101844.38;5008613;28;20061;-67
2022/07/14 09:40:25;;;;;;;16.65;4.00;;;;;;;23.46;61.20;101843.06;5008714;28;20034;-66
2022/07/14 09:42:53;;;;;;;15.77;3.85;;;;;;;23.52;61.66;101844.69;5008330;28;20037;-65
2022/07/14 09:45:28;;;;;;;18.05;3.75;;;;;;;23.92;56.49;101835.22;5008157;28;20048;-65
2022/07/14 09:47:59;;;;;;;16.48;3.85;;;;;;;24.18;51.63;101827.03;5008849;28;20026;-65
2022/07/14 09:50:35;;;;;;;20.07;4.27;;;;;;;24.57;51.22;101836.41;5008467;28;20038;-65
2022/07/14 09:53:12;;;;;;;16.83;3.70;;;;;;;24.94;50.83;101840.34;5008800;28;20049;-65
2022/07/14 09:55:40;;;;;;;17.30;3.67;;;;;;;25.45;45.83;101841.00;5008357;28;20036;-64
2022/07/14 09:58:06;;;;;;;14.50;3.53;;;;;;;25.83;42.95;101840.28;5025120;28;20467;-63
2022/07/14 10:00:34;;;;;;;15.60;3.47;;;;;;;25.77;39.22;101840.56;5050774;28;20472;-63
2022/07/14 10:03:04;;;;;;;11.63;3.17;;;;;;;26.39;38.96;101847.69;5050778;28;20048;-64
2022/07/14 10:05:34;;;;;;;13.63;3.60;;;;;;;26.79;38.19;101839.53;5050209;28;20033;-65
2022/07/14 10:08:03;;;;;;;11.98;2.90;;;;;;;27.18;36.94;101841.22;5050717;28;20059;-64
2022/07/14 10:10:32;;;;;;;14.38;3.10;;;;;;;27.22;35.68;101836.53;5050877;28;20021;-62
2022/07/14 10:12:57;;;;;;;12.90;2.90;;;;;;;27.18;35.22;101840.38;5050389;28;20029;-63
2022/07/14 10:15:23;;;;;;;14.07;2.90;;;;;;;27.26;34.44;101849.88;5050033;28;20029;-63
2022/07/14 10:17:49;;;;;;;14.05;2.95;;;;;;;27.37;34.35;101851.19;5050362;28;20025;-63
2022/07/14 10:20:16;;;;;;;11.65;2.88;;;;;;;28.14;33.32;101842.63;5050694;28;20041;-64
2022/07/14 10:22:43;;;;;;;15.02;2.80;;;;;;;29.51;31.06;101847.63;5050419;28;20083;-64
2022/07/14 10:25:09;;;;;;;11.45;2.60;;;;;;;29.18;32.05;101847.75;5050447;28;20047;-65
2022/07/14 10:27:38;;;;;;;14.77;2.80;;;;;;;29.08;31.88;101854.69;5050727;28;20060;-64
2022/07/14 10:30:04;;;;;;;12.77;2.70;;;;;;;30.09;30.00;101847.78;5049877;28;20025;-64
2022/07/14 10:32:38;;;;;;;9.05;2.90;;;;;;;31.58;27.78;101849.94;5050796;28;20231;-64
2022/07/14 10:35:26;;;;;;;12.52;2.63;;;;;;;33.26;26.19;101853.41;5049567;28;20053;-63
2022/07/14 10:38:03;;;;;;;16.80;2.90;;;;;;;34.30;25.99;101854.47;5050241;28;20032;-64
2022/07/14 10:40:56;;;;;;;11.98;2.75;;;;;;;33.18;27.80;101854.81;5049755;28;20471;-64
2022/07/14 10:43:37;;;;;;;10.65;2.50;;;;;;;33.47;26.08;101853.63;5048669;28;20057;-65
2022/07/14 10:46:03;;;;;;;13.60;2.60;;;;;;;31.83;26.13;101853.69;5048913;28;20570;-65
2022/07/14 10:48:35;;;;;;;11.35;2.60;;;;;;;30.36;27.64;101852.44;5049882;28;20368;-67
2022/07/14 10:51:25;;;;;;;13.65;2.83;;;;;;;30.53;30.01;101846.81;5049140;28;20037;-65
2022/07/14 10:54:11;;;;;;;11.93;2.70;;;;;;;31.65;29.12;101854.00;5048453;28;20485;-65
2022/07/14 10:56:37;;;;;;;12.27;2.60;;;;;;;30.98;27.92;101851.22;5046807;28;20119;-65
2022/07/14 10:59:31;;;;;;;7.38;2.40;;;;;;;31.31;29.80;101856.31;5050502;28;20032;-66
2022/07/14 11:02:12;;;;;;;11.73;2.58;;;;;;;31.21;30.15;101850.59;5048422;28;20060;-65
2022/07/14 11:05:12;;;;;;;12.82;2.90;;;;;;;30.85;29.89;101845.69;5052913;28;22047;-65
2022/07/14 11:07:51;;;;;;;12.70;2.70;;;;;;;32.70;25.75;101848.44;5052099;28;20028;-65
2022/07/14 11:10:19;;;;;;;12.00;2.70;;;;;;;34.39;23.66;101853.72;5049458;28;20032;-65
2022/07/14 11:13:00;;;;;;;10.65;2.60;;;;;;;36.10;24.14;101850.25;5053545;28;20033;-64
2022/07/14 11:15:45;;;;;;;10.63;2.70;;;;;;;37.05;23.47;101845.41;5053147;28;20108;-64
2022/07/14 11:18:16;;;;;;;11.82;2.70;;;;;;;37.43;21.78;101846.44;5053326;28;20083;-63
2022/07/14 11:20:58;;;;;;;11.60;2.70;;;;;;;38.06;21.27;101850.56;5052868;28;20086;-64
2022/07/14 11:23:50;;;;;;;13.18;2.60;;;;;;;38.54;20.05;101848.66;5051715;28;20098;-64